Strona główna
METAR-TAF:

METAR-TAF

Lotnisko :

New Bedford, Massachusetts, Stany Zjednoczone

Szerokość geograficzna: 41-40-31N, Długość geograficzna: 070-57-25W, wysokość: 24 m

Aktualna obserwacja pogody

Raport powstał 9 minut temu, godzina 22:53 UTC
Wiatr 8 kt od południowy zachód
Temperatura 23°C
Wilgotność 65%
Ciśnienie 1009 hPa
Widzialność: 16.1 km
bezchmurnie

METAR: KEWB 302253Z 22008KT 10SM CLR 23/16 A2980 RMK AO2 SLP091 T02330156

czas: 19:02 (23:02 UTC)


TAF: brakujący

Obserwacja i prognoza pogody dla ponad 4000 lotnisk (raport METAR i TAF).

Dostępne stacje oznaczono żółtymi i czerwonymi punktami na mapie.

Najedź kursorem aby zobaczyć nazwę stacji.

Kliknij aby zobaczyć obserwacje i prognozy pogody.

Aby zmienić mapę: kliknij na zielony przycisk z czarnym krzyżykiem, aby powiększyć; na zielony przycisk z myślnikiem, aby pomniejszyć; na zielone strzałki, aby przejść do map sąsiednich.


METAR-TAF: